Details From YBUD - Bundaberg
To YKRY - Kingaroy
Flight Number -
Tags decoded
Created
Modified
Stats Distance 104 nm / 193 km
Max Altitude 0 ft / 0 m
Waypoints 3
Social Downloads 1
Likes 0
Share VATSIM

Download

Looking for another format? Having issues loading an existing format? Contact us
Advertisement - Login to hide

Notes

Requested: YBUD BUD YKRY

Route

YBUD BUD YKRY

ID Type Via Altitude (ft/m) Position (lat/lon) Dist (leg/tot) Name
O YBUD APT - 0 / 0 -24.90340 / 152.32000 - / 0 nm Bundaberg
BUD NDB - 0 / 0 -24.90650 / 152.32100 0 / 0 nm BUNDABERG
O YKRY APT - 0 / 0 -26.58050 / 151.84000 103 / 104 nm Kingaroy

Altitude Profile

Advertisement - Login to hide

YBUD

Details ICAO YBUD (BDB)
Name Bundaberg
Region Australia
Timezone Australia/Brisbane (UTC+10.0)
Stats Elevation 106 ft / 32 m (AMSL)
Location -24.903400° 152.320000°
Runways 2
Magnetic Variation 10.075° E

METAR

YBUD 052100Z AUTO 33008KT 9999 // SCT013 27/22 Q1012

Decode

TAF

Not found

Departure Runways

ID Width Length Bearing (true/mag) Surface Threshold Overrun Markings Lighting
07 95 ft / 29 m 3,704 ft / 1,129 m 68.50° / 58.43° GRASS 0 ft / 0 m 0 ft / 0 m NONE
14 98 ft / 30 m 5,042 ft / 1,537 m 147.90° / 137.83° ASPHALT 331 ft / 101 m 30 ft / 9 m APP EDGE THRESHOLD
25 95 ft / 29 m 3,704 ft / 1,129 m 248.50° / 238.42° GRASS 0 ft / 0 m 0 ft / 0 m NONE
32 98 ft / 30 m 5,042 ft / 1,537 m 327.90° / 317.82° ASPHALT 0 ft / 0 m 39 ft / 12 m APP EDGE THRESHOLD

YKRY

Details ICAO YKRY (KGY)
Name Kingaroy
Region Australia
Timezone Australia/Brisbane (UTC+10.0)
Stats Elevation 1,492 ft / 455 m (AMSL)
Location -26.580500° 151.840000°
Runways 3
Magnetic Variation 10.396° E

METAR

YKRY 052100Z AUTO 00000KT 9999 // NCD 22/07 Q1013

Decode

TAF

Not found

Destination Runways

ID Width Length Bearing (true/mag) Surface Threshold Overrun Markings Lighting
05 203 ft / 62 m 4,718 ft / 1,438 m 65.23° / 54.83° GRASS 0 ft / 0 m 0 ft / 0 m NONE
16 98 ft / 30 m 5,274 ft / 1,608 m 169.15° / 158.76° ASPHALT 0 ft / 0 m 0 ft / 0 m APP EDGE THRESHOLD
16R 102 ft / 31 m 3,553 ft / 1,083 m 168.38° / 157.99° GRASS 0 ft / 0 m 0 ft / 0 m NONE
23 203 ft / 62 m 4,718 ft / 1,438 m 245.22° / 234.82° GRASS 0 ft / 0 m 0 ft / 0 m NONE
34 98 ft / 30 m 5,274 ft / 1,608 m 349.15° / 338.76° ASPHALT 0 ft / 0 m 0 ft / 0 m APP EDGE THRESHOLD
34L 102 ft / 31 m 3,553 ft / 1,083 m 348.38° / 337.99° GRASS 0 ft / 0 m 0 ft / 0 m NONE

Popular Alternatives